Time;durP1;ratioP1;P1;durP2;ratioP2;P2;SDS_P1;SDS_P2;PMS_P1;PMS_P2;Temp;Humidity;BMP_temperature;BMP_pressure;BME280_temperature;BME280_humidity;BME280_pressure;Samples;Min_cycle;Max_cycle;Signal;HPM_P1;HPM_P2
2022/06/21 00:02:03;;;;;;;6.00;4.33;;;12.50;99.90;11.80;99435;;;;562817;251;24199;-80
2022/06/21 00:04:33;;;;;;;10.70;4.50;;;12.40;99.90;11.80;99425;;;;562644;251;24145;-81
2022/06/21 00:06:58;;;;;;;7.13;4.07;;;12.40;99.90;11.80;99430;;;;563153;251;24122;-82
2022/06/21 00:09:26;;;;;;;6.13;4.80;;;12.30;99.90;11.70;99424;;;;562648;251;24128;-83
2022/06/21 00:11:54;;;;;;;11.33;5.07;;;12.30;99.90;11.70;99424;;;;562622;251;24154;-82
2022/06/21 00:14:22;;;;;;;7.83;4.73;;;12.30;99.90;11.70;99424;;;;560811;251;24165;-82
2022/06/21 00:16:51;;;;;;;6.47;4.83;;;12.30;99.90;11.70;99423;;;;570881;250;24166;-82
2022/06/21 00:19:22;;;;;;;7.23;4.33;;;12.20;99.90;11.60;99421;;;;562446;251;24114;-82
2022/06/21 00:21:50;;;;;;;4.97;3.50;;;12.20;99.90;11.60;99413;;;;562318;251;24165;-83
2022/06/21 00:24:20;;;;;;;6.27;3.73;;;12.20;99.90;11.60;99413;;;;562456;251;24166;-81
2022/06/21 00:26:46;;;;;;;4.57;3.37;;;12.20;99.90;11.50;99413;;;;562067;251;24131;-82
2022/06/21 00:29:13;;;;;;;6.97;3.90;;;12.10;99.90;11.50;99407;;;;565229;251;24149;-83
2022/06/21 00:31:41;;;;;;;5.23;2.73;;;12.10;99.90;11.50;99405;;;;562582;251;24119;-82
2022/06/21 00:34:18;;;;;;;3.87;3.20;;;12.10;99.90;11.50;99401;;;;565312;251;24111;-82
2022/06/21 00:36:50;;;;;;;6.60;3.97;;;12.10;99.90;11.40;99391;;;;562498;251;24118;-82
2022/06/21 00:39:17;;;;;;;3.33;3.00;;;12.00;99.90;11.40;99398;;;;562530;251;24149;-83
2022/06/21 00:41:45;;;;;;;4.60;2.90;;;12.00;99.90;11.40;99399;;;;565402;251;24133;-83
2022/06/21 00:44:13;;;;;;;6.10;3.03;;;12.00;99.90;11.40;99395;;;;562382;251;24118;-84
2022/06/21 00:46:44;;;;;;;3.30;2.90;;;11.90;99.90;11.40;99395;;;;560666;251;24119;-83
2022/06/21 00:49:24;;;;;;;5.33;3.20;;;11.90;99.90;11.30;99394;;;;561712;251;24141;-82
2022/06/21 00:51:52;;;;;;;3.97;3.13;;;11.90;99.90;11.30;99393;;;;559497;251;24166;-82
2022/06/21 00:54:23;;;;;;;4.63;2.80;;;11.90;99.90;11.30;99395;;;;561399;251;24148;-82
2022/06/21 00:56:55;;;;;;;6.47;3.57;;;11.90;99.90;11.30;99400;;;;564711;251;24229;-83
2022/06/21 00:59:22;;;;;;;3.33;3.00;;;11.90;99.90;11.30;99397;;;;561768;251;24132;-81
2022/06/21 01:01:50;;;;;;;6.50;3.40;;;11.90;99.90;11.30;99400;;;;561576;251;24115;-82
2022/06/21 01:04:37;;;;;;;4.30;3.10;;;11.80;99.90;11.30;99402;;;;562132;251;24157;-83
2022/06/21 01:07:05;;;;;;;3.70;2.90;;;11.80;99.90;11.20;99407;;;;561951;251;24163;-83
2022/06/21 01:09:41;;;;;;;7.70;4.03;;;11.80;99.90;11.20;99405;;;;562029;251;24137;-82
2022/06/21 01:12:16;;;;;;;3.70;2.80;;;11.80;99.90;11.20;99398;;;;565093;251;24247;-82
2022/06/21 01:14:43;;;;;;;4.20;2.43;;;11.80;99.90;11.20;99404;;;;561895;251;24249;-82
2022/06/21 01:17:12;;;;;;;5.07;2.30;;;11.70;99.90;11.10;99404;;;;561484;251;24136;-81
2022/06/21 01:19:43;;;;;;;1.67;1.57;;;11.70;99.90;11.10;99411;;;;566575;251;24209;-83
2022/06/21 01:22:48;;;;;;;4.63;1.80;;;11.60;99.90;11.10;99409;;;;562789;251;24247;-82
2022/06/21 01:25:29;;;;;;;1.77;1.60;;;11.60;99.90;11.00;99419;;;;562710;251;24156;-82
2022/06/21 01:27:57;;;;;;;2.27;2.07;;;11.60;99.90;10.90;99413;;;;562538;251;24123;-83
2022/06/21 01:30:26;;;;;;;2.83;1.83;;;11.50;99.90;10.90;99408;;;;570888;250;24189;-83
2022/06/21 01:32:53;;;;;;;2.43;1.70;;;11.50;99.90;10.90;99400;;;;562769;251;24169;-83
2022/06/21 01:35:28;;;;;;;1.80;1.73;;;11.40;99.90;10.80;99400;;;;562769;251;24209;-82
2022/06/21 01:37:54;;;;;;;2.57;2.10;;;11.40;99.90;10.80;99404;;;;562152;251;24153;-82
2022/06/21 01:40:25;;;;;;;1.90;1.80;;;11.40;99.90;10.80;99404;;;;562522;251;24122;-84
2022/06/21 01:42:54;;;;;;;4.47;2.10;;;11.40;99.90;10.80;99401;;;;562345;251;24110;-82
2022/06/21 01:45:21;;;;;;;1.73;1.67;;;11.40;99.90;10.80;99396;;;;561892;251;24154;-82
2022/06/21 01:48:07;;;;;;;3.63;2.10;;;11.40;99.90;10.80;99388;;;;565562;251;24113;-82
2022/06/21 01:50:35;;;;;;;4.53;1.80;;;11.30;99.90;10.80;99393;;;;561966;251;24162;-82
2022/06/21 01:53:04;;;;;;;2.43;1.50;;;11.30;99.90;10.80;99391;;;;562495;251;24118;-82
2022/06/21 01:55:41;;;;;;;4.37;1.80;;;11.30;99.90;10.70;99393;;;;561823;251;24165;-82
2022/06/21 01:58:09;;;;;;;2.40;2.20;;;11.30;99.90;10.70;99387;;;;561754;251;24202;-81
2022/06/21 02:00:38;;;;;;;1.90;1.80;;;11.30;99.90;10.70;99388;;;;561824;251;24184;-79
2022/06/21 02:03:09;;;;;;;3.33;2.13;;;11.30;99.90;10.70;99387;;;;561800;251;24125;-81
2022/06/21 02:05:40;;;;;;;4.93;2.07;;;11.30;99.90;10.70;99393;;;;561932;251;25201;-80
2022/06/21 02:08:11;;;;;;;2.73;1.93;;;11.30;99.90;10.70;99386;;;;561880;251;24204;-82
2022/06/21 02:10:48;;;;;;;5.47;2.00;;;11.30;99.90;10.70;99392;;;;561958;251;24127;-83
2022/06/21 02:13:19;;;;;;;2.23;1.87;;;11.30;99.90;10.70;99380;;;;561987;251;24163;-81
2022/06/21 02:15:49;;;;;;;2.33;2.23;;;11.30;99.90;10.70;99382;;;;565230;251;24114;-81
2022/06/21 02:18:17;;;;;;;6.07;2.27;;;11.30;99.90;10.70;99388;;;;561984;251;24141;-82
2022/06/21 02:20:54;;;;;;;2.00;1.80;;;11.20;99.90;10.70;99379;;;;562130;251;24135;-81
2022/06/21 02:23:24;;;;;;;3.93;2.07;;;11.30;99.90;10.60;99383;;;;561465;251;24129;-79
2022/06/21 02:25:53;;;;;;;4.67;2.10;;;11.20;99.90;10.60;99381;;;;561992;251;24128;-81
2022/06/21 02:28:21;;;;;;;1.77;1.67;;;11.20;99.90;10.60;99378;;;;562085;251;27349;-82
2022/06/21 02:30:49;;;;;;;1.33;1.30;;;11.20;99.90;10.50;99373;;;;570721;250;24136;-80
2022/06/21 02:33:18;;;;;;;2.13;1.40;;;11.10;99.90;10.50;99372;;;;563268;251;24141;-81
2022/06/21 02:35:50;;;;;;;5.63;1.30;;;11.10;99.90;10.50;99373;;;;563122;251;24169;-83
2022/06/21 02:38:30;;;;;;;2.87;1.37;;;11.10;99.90;10.50;99380;;;;566359;251;24168;-81
2022/06/21 02:41:10;;;;;;;1.43;1.30;;;11.10;99.90;10.50;99375;;;;562863;251;24122;-83
2022/06/21 02:43:40;;;;;;;4.03;1.77;;;11.10;99.90;10.50;99384;;;;561051;251;24144;-81
2022/06/21 02:46:11;;;;;;;1.83;1.60;;;11.10;99.90;10.40;99383;;;;562760;251;24201;-79
2022/06/21 02:48:42;;;;;;;2.13;1.63;;;11.00;99.90;10.40;99376;;;;561386;251;24141;-82
2022/06/21 02:51:10;;;;;;;2.93;1.47;;;11.10;99.90;10.40;99378;;;;562115;251;24122;-80
2022/06/21 02:54:00;;;;;;;2.60;1.63;;;11.00;99.90;10.40;99377;;;;565168;251;24140;-80
2022/06/21 02:56:30;;;;;;;1.70;1.60;;;11.00;99.90;10.40;99375;;;;562140;251;24139;-79
2022/06/21 02:58:59;;;;;;;1.87;1.30;;;10.90;99.90;10.40;99376;;;;564498;251;24132;-80
2022/06/21 03:01:36;;;;;;;0.93;0.93;;;10.90;99.90;10.30;99367;;;;565617;251;24173;-80
2022/06/21 03:04:03;;;;;;;2.10;1.30;;;10.90;99.90;10.30;99370;;;;562307;251;24117;-84
2022/06/21 03:06:31;;;;;;;2.67;1.50;;;10.90;99.90;10.30;99363;;;;560304;251;24180;-83
2022/06/21 03:09:03;;;;;;;1.90;1.20;;;10.90;99.90;10.30;99370;;;;562192;251;24125;-82
2022/06/21 03:11:31;;;;;;;4.13;1.30;;;10.90;99.90;10.30;99378;;;;562251;251;25172;-84
2022/06/21 03:13:59;;;;;;;0.90;0.90;;;10.90;99.90;10.30;99382;;;;562029;251;24154;-84
2022/06/21 03:16:26;;;;;;;1.43;1.10;;;10.90;99.90;10.20;99382;;;;562147;251;24181;-83
2022/06/21 03:18:54;;;;;;;1.10;1.10;;;10.90;99.90;10.20;99378;;;;562232;251;24159;-82
2022/06/21 03:21:28;;;;;;;1.53;1.23;;;10.80;99.90;10.20;99381;;;;562184;251;24134;-81
2022/06/21 03:23:58;;;;;;;1.40;1.00;;;10.80;99.90;10.20;99382;;;;562253;251;24104;-81
2022/06/21 03:26:27;;;;;;;1.20;1.20;;;10.80;99.90;10.20;99374;;;;565140;251;24125;-79
2022/06/21 03:28:51;;;;;;;1.27;1.20;;;10.80;99.90;10.20;99373;;;;562168;251;24186;-83
2022/06/21 03:31:28;;;;;;;3.37;1.30;;;10.80;99.90;10.20;99384;;;;566296;251;24200;-82
2022/06/21 03:34:08;;;;;;;3.63;1.90;;;10.90;99.90;10.20;99384;;;;565522;251;24165;-82
2022/06/21 03:36:36;;;;;;;1.17;1.07;;;10.80;99.90;10.30;99384;;;;562933;251;24134;-82
2022/06/21 03:39:07;;;;;;;1.47;1.20;;;10.90;99.90;10.30;99382;;;;561907;251;24134;-82
2022/06/21 03:41:44;;;;;;;1.33;1.23;;;10.90;99.90;10.30;99390;;;;562650;251;24118;-80
2022/06/21 03:44:29;;;;;;;1.50;1.40;;;10.90;99.90;10.30;99386;;;;560914;251;24156;-82
2022/06/21 03:47:03;;;;;;;3.93;1.63;;;11.00;99.90;10.30;99378;;;;571663;250;24122;-83
2022/06/21 03:49:49;;;;;;;1.73;1.40;;;11.00;99.90;10.40;99383;;;;571374;248;24157;-83
2022/06/21 03:52:44;;;;;;;1.30;1.30;;;11.00;99.90;10.40;99381;;;;562172;251;24123;-81
2022/06/21 03:55:40;;;;;;;2.40;1.57;;;11.00;99.90;10.40;99385;;;;560384;251;24123;-79
2022/06/21 03:58:51;;;;;;;1.33;1.23;;;11.00;99.90;10.40;99387;;;;562358;251;24198;-82
2022/06/21 04:01:34;;;;;;;1.87;1.30;;;11.00;99.90;10.40;99381;;;;563050;251;24229;-81
2022/06/21 04:04:23;;;;;;;2.13;1.50;;;11.00;99.90;10.40;99390;;;;554953;251;24183;-84
2022/06/21 04:07:07;;;;;;;2.73;1.30;;;11.00;99.90;10.40;99381;;;;562879;251;24179;-79
2022/06/21 04:09:47;;;;;;;1.80;1.10;;;11.10;99.90;10.50;99385;;;;566530;251;24130;-83
2022/06/21 04:12:30;;;;;;;1.43;1.33;;;11.10;99.90;10.50;99371;;;;565005;251;24115;-84
2022/06/21 04:15:04;;;;;;;2.80;1.50;;;11.10;99.90;10.60;99374;;;;562166;251;24126;-84
2022/06/21 04:17:37;;;;;;;1.30;1.20;;;11.20;99.90;10.70;99380;;;;559421;251;24222;-83
2022/06/21 04:20:26;;;;;;;1.57;1.47;;;11.30;99.90;10.80;99373;;;;562877;251;24153;-85
2022/06/21 04:23:06;;;;;;;1.90;1.73;;;11.60;99.90;11.10;99372;;;;563127;251;24110;-85
2022/06/21 04:25:46;;;;;;;1.87;1.77;;;11.60;99.90;11.30;99363;;;;563006;251;24135;-84
2022/06/21 04:28:47;;;;;;;3.50;2.10;;;11.90;99.90;11.80;99372;;;;559019;251;24187;-78
2022/06/21 04:31:21;;;;;;;1.90;1.80;;;12.40;99.90;12.60;99374;;;;559336;256;24140;-79
2022/06/21 04:33:57;;;;;;;2.30;2.10;;;13.20;99.90;13.50;99375;;;;561872;251;24131;-78
2022/06/21 04:36:38;;;;;;;3.23;2.20;;;14.00;99.90;14.60;99394;;;;566888;250;24152;-78
2022/06/21 04:39:08;;;;;;;2.00;1.90;;;15.20;99.90;15.40;99391;;;;560966;251;24181;-80
2022/06/21 04:41:44;;;;;;;2.10;1.97;;;16.20;99.90;15.60;99400;;;;562257;251;24129;-79
2022/06/21 04:44:15;;;;;;;3.90;1.67;;;16.50;99.90;15.60;99390;;;;560533;251;24126;-80
2022/06/21 04:47:07;;;;;;;3.63;1.73;;;16.50;99.90;15.50;99384;;;;561982;251;24115;-80
2022/06/21 04:49:50;;;;;;;1.57;1.47;;;16.40;99.90;15.70;99376;;;;563460;251;24157;-79
2022/06/21 04:52:26;;;;;;;1.50;1.20;;;17.30;99.90;16.60;99383;;;;562611;249;24112;-81
2022/06/21 04:54:54;;;;;;;1.00;1.00;;;17.20;99.90;17.80;99383;;;;563578;251;24215;-79
2022/06/21 04:57:25;;;;;;;1.73;0.93;;;19.00;99.90;18.30;99385;;;;560723;251;24197;-80
2022/06/21 04:59:56;;;;;;;1.57;0.90;;;18.90;99.90;18.30;99398;;;;563091;251;24140;-80
2022/06/21 05:02:32;;;;;;;3.20;1.10;;;19.10;99.90;18.60;99388;;;;565915;251;24137;-79
2022/06/21 05:05:21;;;;;;;1.30;1.07;;;19.40;99.90;20.70;99383;;;;562795;251;24129;-80
2022/06/21 05:08:04;;;;;;;1.60;1.27;;;21.20;99.90;23.20;99383;;;;562488;251;24180;-80
2022/06/21 05:10:32;;;;;;;2.77;1.00;;;23.70;99.90;24.90;99390;;;;565856;251;24162;-80
2022/06/21 05:13:00;;;;;;;1.50;0.73;;;25.60;99.90;26.30;99392;;;;562369;251;24163;-79
2022/06/21 05:15:34;;;;;;;1.87;0.90;;;27.20;99.90;27.50;99389;;;;562292;251;24164;-81
2022/06/21 05:18:02;;;;;;;1.20;1.10;;;28.40;96.20;27.60;99395;;;;562229;251;23164;-79
2022/06/21 05:20:30;;;;;;;2.00;1.17;;;29.00;91.80;26.00;99388;;;;565620;251;23155;-83
2022/06/21 05:22:58;;;;;;;1.90;0.80;;;27.80;89.30;24.20;99386;;;;562214;251;23148;-82
2022/06/21 05:25:28;;;;;;;1.30;0.97;;;26.10;86.70;23.00;99385;;;;562534;251;24134;-83
2022/06/21 05:28:33;;;;;;;1.80;0.90;;;24.40;93.70;23.20;99391;;;;561733;251;24197;-82
2022/06/21 05:31:10;;;;;;;1.97;0.93;;;24.30;93.60;24.20;99375;;;;562101;251;24131;-83
2022/06/21 05:33:50;;;;;;;8.07;1.20;;;25.00;92.50;25.90;99384;;;;562504;251;23153;-83
2022/06/21 05:36:21;;;;;;;2.53;1.27;;;26.40;89.50;27.30;99385;;;;564742;251;23142;-79
2022/06/21 05:39:01;;;;;;;1.30;0.97;;;27.80;81.80;28.60;99385;;;;562378;251;23175;-79
2022/06/21 05:41:31;;;;;;;1.53;1.00;;;29.20;77.90;29.50;99387;;;;562293;251;25276;-80
2022/06/21 05:44:14;;;;;;;1.50;0.80;;;30.40;71.10;30.20;99391;;;;566644;251;24196;-78
2022/06/21 05:46:42;;;;;;;3.92;1.12;;;31.10;68.10;30.80;99404;;;;566019;251;23121;-81
2022/06/21 05:49:11;;;;;;;2.10;0.75;;;31.70;64.30;30.80;99397;;;;562477;251;23289;-79
2022/06/21 05:51:37;;;;;;;1.15;1.00;;;31.90;62.40;31.10;99403;;;;561578;251;23135;-80
2022/06/21 05:54:06;;;;;;;4.78;1.45;;;32.10;62.50;31.70;99407;;;;562092;251;23129;-80
2022/06/21 05:56:37;;;;;;;1.73;0.80;;;32.70;58.30;31.60;99415;;;;564286;251;23172;-80
2022/06/21 05:59:08;;;;;;;2.40;1.05;;;32.80;55.20;31.90;99419;;;;570777;249;24148;-79
2022/06/21 06:02:07;;;;;;;2.20;1.55;;;32.80;55.10;32.30;99421;;;;570914;250;24122;-80
2022/06/21 06:04:43;;;;;;;0.90;0.80;;;33.20;55.90;33.10;99433;;;;563308;251;23126;-80
2022/06/21 06:07:30;;;;;;;1.15;0.85;;;34.40;52.50;33.70;99429;;;;563764;251;23186;-80
2022/06/21 06:09:58;;;;;;;1.73;0.93;;;34.40;52.50;34.20;99427;;;;563023;251;23131;-82
2022/06/21 06:12:31;;;;;;;1.37;0.60;;;34.90;52.40;34.30;99430;;;;562376;251;23136;-80
2022/06/21 06:15:08;;;;;;;2.05;0.65;;;35.20;48.70;34.40;99428;;;;563385;251;23155;-81
2022/06/21 06:17:58;;;;;;;1.45;0.65;;;35.30;49.80;33.10;99434;;;;566786;251;23147;-79
2022/06/21 06:20:32;;;;;;;0.98;0.85;;;34.60;48.70;30.60;99438;;;;563183;251;24149;-82
2022/06/21 06:23:18;;;;;;;0.93;0.73;;;32.40;49.70;29.90;99442;;;;567211;251;23120;-83
2022/06/21 06:25:58;;;;;;;1.15;0.70;;;31.10;52.70;31.10;99455;;;;562538;251;23179;-82
2022/06/21 06:29:22;;;;;;;1.15;0.65;;;31.60;52.50;32.10;99468;;;;562639;251;23136;-79
2022/06/21 06:32:15;;;;;;;1.75;0.70;;;32.50;50.30;32.70;99474;;;;562861;251;23135;-82
2022/06/21 06:34:43;;;;;;;0.80;0.77;;;33.20;49.20;33.40;99472;;;;562794;251;24221;-80
2022/06/21 06:37:36;;;;;;;0.68;0.52;;;33.90;48.90;34.10;99482;;;;562729;251;24206;-79
2022/06/21 06:40:05;;;;;;;2.17;0.90;;;34.70;48.60;35.40;99476;;;;562488;251;23144;-79
2022/06/21 06:42:37;;;;;;;5.03;0.95;;;35.80;46.30;35.70;99483;;;;561850;251;24187;-81
2022/06/21 06:45:11;;;;;;;2.03;0.90;;;36.40;44.90;34.90;99509;;;;562352;251;23153;-80
2022/06/21 06:47:39;;;;;;;3.12;0.75;;;35.90;46.10;34.30;99499;;;;561650;251;23133;-81
2022/06/21 06:50:24;;;;;;;0.77;0.60;;;35.40;45.70;34.30;99506;;;;562264;251;23134;-81
2022/06/21 06:53:01;;;;;;;1.37;0.85;;;35.20;46.40;35.00;99519;;;;562255;251;23161;-82
2022/06/21 06:55:47;;;;;;;1.15;0.90;;;36.50;45.60;36.30;99533;;;;570712;250;23124;-81
2022/06/21 06:58:45;;;;;;;1.73;0.80;;;36.50;45.60;36.90;99536;;;;561785;251;23188;-81
2022/06/21 07:01:44;;;;;;;0.77;0.77;;;35.20;45.10;33.50;99541;;;;560121;251;24218;-81
2022/06/21 07:04:13;;;;;;;2.95;0.88;;;32.10;48.00;29.80;99547;;;;559662;251;23190;-82
2022/06/21 07:06:47;;;;;;;0.82;0.60;;;32.00;47.80;27.40;99544;;;;562669;251;23120;-80
2022/06/21 07:09:35;;;;;;;3.08;1.23;;;29.60;51.70;26.00;99544;;;;562499;251;23163;-80
2022/06/21 07:12:09;;;;;;;1.67;0.97;;;27.60;55.60;25.20;99545;;;;562706;251;23142;-81
2022/06/21 07:14:40;;;;;;;1.73;0.90;;;26.20;58.40;25.50;99546;;;;570034;250;24116;-79
2022/06/21 07:17:14;;;;;;;2.53;1.27;;;25.90;61.20;25.80;99549;;;;564145;251;23133;-80
2022/06/21 07:19:54;;;;;;;3.57;1.33;;;26.20;60.30;25.30;99544;;;;563780;251;23189;-81
2022/06/21 07:22:18;;;;;;;1.77;1.07;;;25.90;60.70;25.20;99531;;;;563098;251;23168;-80
2022/06/21 07:24:49;;;;;;;1.70;1.00;;;25.70;61.50;24.70;99545;;;;566288;251;23114;-80
2022/06/21 07:27:17;;;;;;;2.67;1.03;;;25.40;62.00;24.50;99544;;;;565976;250;24108;-80
2022/06/21 07:30:01;;;;;;;2.17;0.80;;;24.90;64.70;24.20;99537;;;;562623;251;23173;-81
2022/06/21 07:32:29;;;;;;;2.07;0.90;;;24.80;63.70;25.10;99545;;;;562455;251;24118;-79
2022/06/21 07:35:12;;;;;;;0.93;0.70;;;25.30;64.80;26.60;99548;;;;562166;251;24159;-79
2022/06/21 07:37:52;;;;;;;1.20;0.70;;;26.60;62.80;28.60;99554;;;;562056;251;23198;-83
2022/06/21 07:40:25;;;;;;;1.57;0.80;;;28.50;58.20;29.70;99566;;;;569450;251;26286;-82
2022/06/21 07:43:02;;;;;;;1.20;1.00;;;29.80;56.70;30.00;99571;;;;562094;251;23172;-83
2022/06/21 07:45:35;;;;;;;2.42;1.20;;;30.50;54.50;29.70;99561;;;;562186;251;23132;-81
2022/06/21 07:48:13;;;;;;;1.33;0.93;;;30.30;54.80;30.70;99571;;;;570573;250;24174;-79
2022/06/21 07:50:46;;;;;;;1.37;1.00;;;31.00;54.40;32.20;99584;;;;570649;251;23144;-80
2022/06/21 07:53:14;;;;;;;1.62;1.17;;;32.30;53.60;33.90;99580;;;;562173;251;23134;-80
2022/06/21 07:55:45;;;;;;;2.65;1.15;;;34.10;51.20;32.70;99575;;;;559869;251;23144;-81
2022/06/21 07:58:19;;;;;;;1.52;1.40;;;33.70;49.60;30.80;99584;;;;561820;251;23149;-81
2022/06/21 08:09:41;;;;;;;1.50;0.98;;;33.50;51.20;34.60;99598;;;;570787;250;23172;-84
2022/06/21 08:12:10;;;;;;;2.47;0.90;;;34.80;49.10;34.70;99612;;;;556760;251;23163;-83
2022/06/21 08:14:38;;;;;;;3.40;1.15;;;35.30;47.50;32.40;99602;;;;562220;251;24149;-85
2022/06/21 08:17:34;;;;;;;2.00;0.98;;;33.90;48.60;30.40;99609;;;;562470;251;23216;-80
2022/06/21 08:20:02;;;;;;;1.48;1.10;;;32.10;50.80;28.50;99615;;;;562063;251;24155;-80
2022/06/21 08:22:38;;;;;;;1.15;1.00;;;30.20;53.20;26.70;99614;;;;562093;251;23135;-81
2022/06/21 08:25:27;;;;;;;1.33;1.00;;;28.40;56.70;25.60;99605;;;;557980;251;23159;-82
2022/06/21 08:28:01;;;;;;;0.93;0.90;;;26.90;59.00;24.90;99604;;;;563182;251;23138;-81
2022/06/21 08:30:34;;;;;;;3.20;1.10;;;25.80;61.40;24.40;99613;;;;560683;251;24179;-83
2022/06/21 08:33:06;;;;;;;1.17;0.93;;;25.30;64.00;24.90;99604;;;;561308;251;24154;-81
2022/06/21 08:35:34;;;;;;;1.33;0.73;;;25.20;63.90;25.00;99622;;;;563002;251;23200;-82
2022/06/21 08:38:02;;;;;;;1.50;0.87;;;25.40;63.90;24.20;99617;;;;565956;251;23176;-81
2022/06/21 08:41:01;;;;;;;1.10;0.70;;;24.30;66.40;23.40;99620;;;;562670;251;24188;-81
2022/06/21 08:43:54;;;;;;;3.40;0.90;;;23.40;68.70;22.60;99619;;;;562293;251;24144;-77
2022/06/21 08:46:44;;;;;;;4.43;1.00;;;23.30;68.50;22.20;99620;;;;562325;251;24161;-78
2022/06/21 08:49:52;;;;;;;0.90;0.80;;;22.50;72.00;22.00;99626;;;;562262;251;24103;-78
2022/06/21 08:52:45;;;;;;;1.10;0.67;;;22.40;72.00;21.90;99616;;;;561732;251;24129;-80
2022/06/21 08:55:33;;;;;;;2.03;0.83;;;22.30;74.10;22.30;99636;;;;561913;251;24107;-77
2022/06/21 08:58:19;;;;;;;0.97;0.90;;;22.60;73.10;22.80;99630;;;;570550;249;24144;-80
2022/06/21 09:01:06;;;;;;;2.43;1.07;;;23.10;71.50;23.10;99629;;;;562216;251;24110;-79
2022/06/21 09:04:25;;;;;;;3.57;0.90;;;23.50;71.20;22.80;99629;;;;561841;251;24160;-83
2022/06/21 09:07:27;;;;;;;1.23;0.83;;;23.30;71.70;22.20;99630;;;;560556;251;24187;-79
2022/06/21 09:10:28;;;;;;;4.73;1.30;;;22.90;73.70;22.10;99622;;;;562559;251;24110;-81
2022/06/21 09:12:59;;;;;;;3.43;1.23;;;22.60;76.00;22.80;99631;;;;562557;251;24110;-81
2022/06/21 09:16:12;;;;;;;1.93;0.87;;;23.10;76.40;22.80;99627;;;;561042;251;24096;-79
2022/06/21 09:18:55;;;;;;;1.87;1.30;;;23.20;75.40;22.10;99627;;;;562588;251;24121;-80
2022/06/21 09:22:03;;;;;;;0.97;0.97;;;22.70;76.10;21.70;99631;;;;562518;251;24215;-82
2022/06/21 09:24:40;;;;;;;2.90;1.10;;;22.30;77.80;21.30;99640;;;;562413;251;24107;-80
2022/06/21 09:27:35;;;;;;;2.17;1.10;;;21.90;77.10;22.00;99638;;;;562321;251;23145;-81
2022/06/21 09:30:17;;;;;;;1.23;0.80;;;22.30;77.80;23.20;99638;;;;544553;256;24165;-81
2022/06/21 09:32:54;;;;;;;4.50;1.43;;;23.50;74.60;23.40;99645;;;;567595;251;24181;-83
2022/06/21 09:35:52;;;;;;;2.87;1.00;;;23.90;72.20;23.00;99645;;;;562394;251;24119;-87
2022/06/21 09:38:27;;;;;;;1.57;0.90;;;23.20;69.70;22.50;99644;;;;561528;251;24104;-84
2022/06/21 09:41:16;;;;;;;1.23;1.03;;;23.20;69.70;22.30;99643;;;;563792;251;24211;-83
2022/06/21 09:44:11;;;;;;;3.53;1.00;;;22.90;71.20;22.30;99651;;;;563629;251;24147;-81
2022/06/21 09:47:05;;;;;;;1.93;0.90;;;22.80;72.80;22.50;99655;;;;563419;251;24092;-81
2022/06/21 09:49:54;;;;;;;1.53;1.00;;;22.90;72.80;22.80;99654;;;;570802;249;24122;-80
2022/06/21 09:52:25;;;;;;;1.67;1.13;;;23.30;72.30;22.90;99665;;;;563046;251;24110;-80
2022/06/21 09:55:05;;;;;;;1.70;1.13;;;23.40;72.80;22.70;99660;;;;567494;251;24149;-82
2022/06/21 09:57:42;;;;;;;2.73;0.87;;;23.20;73.10;22.30;99667;;;;563346;251;24185;-82
2022/06/21 10:00:22;;;;;;;1.80;1.00;;;22.90;73.80;21.70;99674;;;;566177;251;23125;-83
2022/06/21 10:03:04;;;;;;;2.67;1.07;;;22.40;75.20;21.50;99669;;;;566226;251;24157;-81
2022/06/21 10:05:53;;;;;;;2.10;1.13;;;22.10;76.60;21.60;99667;;;;563873;251;23144;-79
2022/06/21 10:08:39;;;;;;;2.87;1.20;;;22.00;77.50;22.00;99672;;;;560719;251;24128;-79
2022/06/21 10:11:26;;;;;;;0.87;0.87;;;22.40;77.00;23.30;99678;;;;566337;251;24107;-81
2022/06/21 10:14:01;;;;;;;2.73;1.17;;;23.50;74.10;24.10;99677;;;;567611;251;24103;-80
2022/06/21 10:16:34;;;;;;;2.10;1.03;;;24.50;70.70;24.20;99684;;;;566209;251;24099;-79
2022/06/21 10:19:14;;;;;;;2.00;1.20;;;24.70;69.60;23.80;99683;;;;562182;251;24162;-83
2022/06/21 10:21:51;;;;;;;1.83;1.17;;;24.50;68.90;23.50;99690;;;;563054;251;24107;-80
2022/06/21 10:24:30;;;;;;;2.27;1.43;;;24.10;71.50;23.30;99689;;;;562397;251;24100;-79
2022/06/21 10:27:08;;;;;;;3.93;1.40;;;23.90;71.30;23.30;99688;;;;562418;251;24136;-84
2022/06/21 10:30:28;;;;;;;5.13;1.57;;;23.80;71.20;23.40;99700;;;;562762;251;23122;-78
2022/06/21 10:33:08;;;;;;;0.97;0.80;;;23.90;71.90;23.30;99705;;;;561729;251;24076;-83
2022/06/21 10:35:45;;;;;;;3.33;1.10;;;23.80;69.80;22.90;99695;;;;570292;250;24130;-80
2022/06/21 10:38:34;;;;;;;4.37;1.73;;;23.60;70.90;22.60;99695;;;;562177;251;23116;-79
2022/06/21 10:41:28;;;;;;;2.37;1.30;;;23.30;71.90;22.40;99704;;;;555803;251;24121;-81
2022/06/21 10:44:38;;;;;;;1.97;1.20;;;23.00;73.30;22.20;99708;;;;563408;251;24127;-85
2022/06/21 10:47:04;;;;;;;3.37;1.40;;;22.70;74.40;22.00;99712;;;;571219;251;24159;-83
2022/06/21 10:49:59;;;;;;;1.73;1.00;;;22.50;74.50;21.80;99723;;;;562997;251;24111;-81
2022/06/21 10:52:42;;;;;;;0.90;0.90;;;22.30;75.80;21.50;99718;;;;563944;251;24135;-82
2022/06/21 10:55:21;;;;;;;3.03;1.17;;;22.10;76.20;21.30;99735;;;;563616;251;24150;-81
2022/06/21 10:58:01;;;;;;;1.63;1.20;;;21.80;76.50;21.10;99735;;;;566042;251;23139;-79
2022/06/21 11:04:00;;;;;;;1.93;0.90;;;21.50;77.20;20.70;99736;;;;563813;251;24156;-80
2022/06/21 11:06:50;;;;;;;1.93;1.17;;;21.10;79.40;20.60;99731;;;;567210;251;24111;-81
2022/06/21 11:09:27;;;;;;;1.33;1.23;;;21.10;79.40;20.40;99736;;;;560942;251;24127;-79
2022/06/21 11:15:29;;;;;;;1.00;0.70;;;20.90;81.20;20.70;99746;;;;572327;251;24113;-81
2022/06/21 11:18:37;;;;;;;2.03;1.12;;;21.10;81.20;20.90;99726;;;;556662;251;35292;-83
2022/06/21 11:21:23;;;;;;;2.20;0.80;;;21.30;80.30;21.40;99729;;;;562668;251;24172;-82
2022/06/21 11:24:12;;;;;;;0.80;0.80;;;21.70;80.40;21.80;99739;;;;563057;251;24170;-79
2022/06/21 11:26:55;;;;;;;2.17;0.90;;;22.20;79.30;22.20;99743;;;;570804;251;24111;-81
2022/06/21 11:29:56;;;;;;;1.70;1.00;;;22.60;79.20;22.40;99751;;;;570669;251;24107;-80
2022/06/21 11:33:04;;;;;;;1.37;0.90;;;22.90;78.80;22.70;99741;;;;566735;251;24130;-80
2022/06/21 11:35:32;;;;;;;3.03;0.83;;;23.20;78.00;22.80;99761;;;;561127;251;24100;-81
2022/06/21 11:38:14;;;;;;;1.33;0.70;;;23.40;76.60;22.70;99761;;;;562051;251;24100;-82
2022/06/21 11:40:46;;;;;;;0.73;0.73;;;23.30;75.00;22.60;99759;;;;566116;251;24103;-81
2022/06/21 11:43:19;;;;;;;1.50;0.70;;;23.20;76.20;22.40;99770;;;;562127;251;24099;-80
2022/06/21 11:46:11;;;;;;;1.70;0.63;;;23.10;76.60;22.00;99767;;;;561999;251;24116;-79
2022/06/21 11:48:48;;;;;;;1.93;0.80;;;22.70;75.30;21.80;99768;;;;562505;251;23129;-79
2022/06/21 11:51:25;;;;;;;2.10;0.73;;;22.40;76.60;21.70;99745;;;;564853;251;24151;-82
2022/06/21 11:54:04;;;;;;;1.03;0.70;;;22.30;78.20;21.70;99747;;;;562561;251;24107;-82
2022/06/21 11:57:10;;;;;;;0.97;0.70;;;22.10;80.70;21.70;99752;;;;562314;251;23121;-80
2022/06/21 11:59:37;;;;;;;2.17;0.50;;;22.10;80.70;21.60;99765;;;;541485;261;24159;-86
2022/06/21 12:02:18;;;;;;;0.63;0.63;;;22.10;78.50;21.20;99765;;;;533164;264;23224;-79
2022/06/21 12:05:20;;;;;;;1.80;0.70;;;21.80;77.30;20.90;99767;;;;546987;256;24150;-82
2022/06/21 12:07:58;;;;;;;2.13;0.70;;;21.50;77.50;20.80;99782;;;;567762;249;24068;-86
2022/06/21 12:10:50;;;;;;;2.30;0.87;;;21.40;78.30;20.70;99767;;;;575891;249;24115;-79
2022/06/21 12:13:23;;;;;;;0.83;0.77;;;21.20;78.40;20.70;99780;;;;575621;249;24156;-83
2022/06/21 12:16:16;;;;;;;0.60;0.50;;;21.20;80.50;20.70;99787;;;;567275;249;24085;-81
2022/06/21 12:18:40;;;;;;;1.30;0.70;;;21.20;79.30;20.80;99784;;;;566937;249;24077;-80
2022/06/21 12:21:10;;;;;;;0.43;0.40;;;21.20;78.40;20.70;99782;;;;571469;250;23102;-83
2022/06/21 12:23:45;;;;;;;0.30;0.30;;;21.40;79.70;20.90;99784;;;;566664;250;24112;-80